Oaklevel, Virginia
Current Conditions -  °F | °C
As of 4:55 AM on Saturday 01 Nov 2014 (Local Time) from KMTV Reporting Station
Moderate Rain Moderate Rain  
Wind Chill: 40°   Ceiling: 900
Heat Index: 43°   Visibility: 10mi
Dew Point: 43°   Wind: 6mph
Humidity: 100%   Direction: 20°NNE
Pressure: 29.78"   Gusts: NA
Location:  36.7587°N, 79.9987°W
Report Text: KMTV 010855Z AUTO 02005KT 10SM RA BKN009 OVC015 06/06 A2978 RMK AO2 P0006 60019 T00620062
Loading
Personal Weather Stations






























Interactive Weather Map
Tropical Storm Tracking
New forecast layout! Learn more

10-Day Weather Forecast

Advertisements
Track Severe Weather on mobile